createdAt,value
2018-04-28T00:01:14.383Z,10.80
2018-04-28T00:03:41.036Z,10.70
2018-04-28T00:06:07.674Z,10.60
2018-04-28T00:08:34.413Z,10.50
2018-04-28T00:11:01.050Z,10.50
2018-04-28T00:13:30.945Z,10.70
2018-04-28T00:16:00.366Z,10.70
2018-04-28T00:18:28.028Z,10.60
2018-04-28T00:20:54.665Z,10.60
2018-04-28T00:23:21.404Z,10.60
2018-04-28T00:26:03.562Z,10.60
2018-04-28T00:31:37.739Z,10.30
2018-04-28T00:34:07.449Z,10.30
2018-04-28T00:39:34.841Z,10.50
2018-04-28T00:42:01.460Z,10.50
2018-04-28T00:44:28.903Z,10.20
2018-04-28T00:49:57.110Z,10.20
2018-04-28T00:52:24.669Z,10.10
2018-04-28T00:54:54.294Z,10.10
2018-04-28T01:00:39.495Z,10.10
2018-04-28T01:03:06.840Z,10.00
2018-04-28T01:05:44.601Z,10.10
2018-04-28T01:08:11.360Z,10.20
2018-04-28T01:10:37.979Z,10.20
2018-04-28T01:13:04.634Z,10.10
2018-04-28T01:15:37.962Z,10.20
2018-04-28T01:21:03.667Z,10.10
2018-04-28T01:23:35.011Z,10.00
2018-04-28T01:29:07.279Z,9.90
2018-04-28T01:31:37.522Z,9.60
2018-04-28T01:34:05.061Z,9.50
2018-04-28T01:36:48.409Z,9.90
2018-04-28T01:39:18.041Z,9.80
2018-04-28T01:41:52.742Z,9.70
2018-04-28T01:47:23.088Z,9.60
2018-04-28T01:50:01.778Z,9.70
2018-04-28T01:52:45.023Z,9.50
2018-04-28T01:58:17.635Z,9.60
2018-04-28T02:00:49.080Z,9.60
2018-04-28T02:03:15.819Z,9.60
2018-04-28T02:05:52.390Z,9.60
2018-04-28T02:08:19.130Z,9.70
2018-04-28T02:11:01.332Z,9.60
2018-04-28T02:13:45.770Z,9.60
2018-04-28T02:19:07.427Z,9.90
2018-04-28T02:21:37.958Z,9.90
2018-04-28T02:27:14.238Z,9.60
2018-04-28T02:29:43.640Z,9.50
2018-04-28T02:32:10.256Z,9.70
2018-04-28T02:34:37.939Z,9.70
2018-04-28T02:37:12.972Z,10.00
2018-04-28T02:39:46.676Z,9.80
2018-04-28T02:42:14.235Z,9.70
2018-04-28T02:44:41.693Z,9.50
2018-04-28T02:47:18.363Z,9.00
2018-04-28T02:49:46.947Z,8.80
2018-04-28T02:52:26.383Z,9.10
2018-04-28T02:54:54.967Z,9.10
2018-04-28T02:57:22.426Z,9.40
2018-04-28T03:00:01.383Z,9.20
2018-04-28T03:02:36.895Z,8.60
2018-04-28T03:05:08.347Z,9.10
2018-04-28T03:07:43.743Z,9.00
2018-04-28T03:10:10.323Z,9.10
2018-04-28T03:12:41.059Z,8.90
2018-04-28T03:15:07.593Z,8.70
2018-04-28T03:17:38.735Z,8.50
2018-04-28T03:20:17.762Z,8.60
2018-04-28T03:22:47.125Z,8.50
2018-04-28T03:25:18.590Z,8.70
2018-04-28T03:27:46.992Z,8.60
2018-04-28T03:30:14.470Z,8.50
2018-04-28T03:32:41.087Z,8.80
2018-04-28T03:35:09.259Z,9.00
2018-04-28T03:37:38.662Z,8.90
2018-04-28T03:40:05.404Z,8.90
2018-04-28T03:45:31.546Z,9.00
2018-04-28T03:48:17.859Z,9.20
2018-04-28T03:50:48.068Z,8.90
2018-04-28T03:53:35.424Z,8.30
2018-04-28T03:56:02.026Z,8.00
2018-04-28T03:58:40.931Z,8.10
2018-04-28T04:01:23.358Z,8.10
2018-04-28T04:04:00.030Z,8.00
2018-04-28T04:09:34.265Z,8.60
2018-04-28T04:15:21.401Z,8.70
2018-04-28T04:20:55.755Z,8.40
2018-04-28T04:26:39.806Z,8.70
2018-04-28T04:29:23.033Z,8.80
2018-04-28T04:31:55.974Z,9.00
2018-04-28T04:34:26.343Z,9.10
2018-04-28T04:36:57.280Z,9.00
2018-04-28T04:42:27.421Z,8.80
2018-04-28T04:45:07.063Z,8.70
2018-04-28T04:50:55.234Z,8.80
2018-04-28T04:56:42.671Z,8.70
2018-04-28T04:59:29.379Z,8.70
2018-04-28T05:05:11.090Z,8.80
2018-04-28T05:07:44.496Z,8.70
2018-04-28T05:10:18.889Z,8.50
2018-04-28T05:12:56.193Z,8.90
2018-04-28T05:18:56.235Z,9.20
2018-04-28T05:24:34.871Z,9.30
2018-04-28T05:27:03.249Z,9.30
2018-04-28T05:29:55.682Z,9.30
2018-04-28T05:32:32.984Z,9.40
2018-04-28T05:35:14.567Z,9.40
2018-04-28T05:37:49.192Z,9.40
2018-04-28T05:40:34.777Z,9.40
2018-04-28T05:43:11.450Z,9.60
2018-04-28T05:49:03.188Z,9.90
2018-04-28T05:54:51.451Z,10.00
2018-04-28T05:57:28.209Z,9.90
2018-04-28T06:00:06.749Z,9.80
2018-04-28T06:05:52.246Z,9.90
2018-04-28T06:08:27.891Z,9.80
2018-04-28T06:14:06.501Z,10.00
2018-04-28T06:16:41.047Z,10.20
2018-04-28T06:19:20.073Z,10.20
2018-04-28T06:21:46.597Z,10.30
2018-04-28T06:24:13.860Z,10.60
2018-04-28T06:26:40.497Z,10.60
2018-04-28T06:29:07.134Z,10.70
2018-04-28T06:31:33.879Z,10.70
2018-04-28T06:34:00.512Z,10.80
2018-04-28T06:36:27.047Z,10.90
2018-04-28T06:38:53.684Z,11.00
2018-04-28T06:41:20.320Z,11.00
2018-04-28T06:43:46.772Z,11.10
2018-04-28T06:46:13.389Z,11.10
2018-04-28T06:48:39.904Z,11.10
2018-04-28T06:51:06.609Z,11.20
2018-04-28T06:53:33.077Z,11.50
2018-04-28T06:56:00.451Z,11.50
2018-04-28T06:58:26.987Z,11.40
2018-04-28T07:00:53.739Z,11.70
2018-04-28T07:03:21.183Z,11.80
2018-04-28T07:05:47.823Z,11.80
2018-04-28T07:08:14.333Z,12.00
2018-04-28T07:10:41.742Z,12.20
2018-04-28T07:13:09.165Z,12.40
2018-04-28T07:15:35.905Z,12.30
2018-04-28T07:18:02.440Z,12.40
2018-04-28T07:20:29.185Z,12.30
2018-04-28T07:22:55.918Z,12.40
2018-04-28T07:25:22.427Z,12.40
2018-04-28T07:27:49.092Z,12.50
2018-04-28T07:30:15.614Z,12.50
2018-04-28T07:32:42.145Z,12.50
2018-04-28T07:35:08.696Z,12.50
2018-04-28T07:37:35.333Z,12.70
2018-04-28T07:40:02.893Z,13.00
2018-04-28T07:42:29.530Z,13.00
2018-04-28T07:44:56.273Z,13.10
2018-04-28T07:47:22.785Z,13.00
2018-04-28T07:49:50.057Z,13.30
2018-04-28T07:52:16.585Z,13.20
2018-04-28T07:54:50.294Z,13.40
2018-04-28T07:57:16.932Z,13.60
2018-04-28T07:59:43.466Z,13.70
2018-04-28T08:02:10.124Z,13.70
2018-04-28T08:04:36.638Z,13.80
2018-04-28T08:07:03.872Z,14.00
2018-04-28T08:09:30.427Z,14.00
2018-04-28T08:11:57.065Z,14.10
2018-04-28T08:14:24.036Z,14.30
2018-04-28T08:16:50.645Z,14.30
2018-04-28T08:19:17.282Z,14.40
2018-04-28T08:21:43.922Z,14.60
2018-04-28T08:24:10.555Z,14.60
2018-04-28T08:26:38.110Z,14.70
2018-04-28T08:29:04.752Z,14.60
2018-04-28T08:31:31.493Z,14.80
2018-04-28T08:33:58.026Z,14.80
2018-04-28T08:36:26.507Z,15.00
2018-04-28T08:38:53.251Z,15.00
2018-04-28T08:41:21.728Z,15.10
2018-04-28T08:43:48.262Z,15.20
2018-04-28T08:46:14.797Z,15.30
2018-04-28T08:48:41.845Z,15.50
2018-04-28T08:51:09.307Z,15.50
2018-04-28T08:53:36.655Z,15.40
2018-04-28T08:56:03.189Z,15.40
2018-04-28T08:58:29.827Z,15.50
2018-04-28T09:01:00.170Z,15.70
2018-04-28T09:03:26.663Z,15.60
2018-04-28T09:05:53.321Z,15.90
2018-04-28T09:08:20.575Z,16.00
2018-04-28T09:10:47.212Z,16.00
2018-04-28T09:13:14.569Z,16.10
2018-04-28T09:15:41.922Z,16.00
2018-04-28T09:18:09.657Z,16.00
2018-04-28T09:20:37.037Z,15.90
2018-04-28T09:23:04.400Z,15.90
2018-04-28T09:25:31.848Z,16.00
2018-04-28T09:27:59.207Z,16.00
2018-04-28T09:30:26.556Z,15.80
2018-04-28T09:32:53.197Z,15.80
2018-04-28T09:35:19.829Z,15.80
2018-04-28T09:37:47.188Z,16.10
2018-04-28T09:40:13.925Z,16.10
2018-04-28T09:42:41.280Z,16.20
2018-04-28T09:45:07.916Z,16.20
2018-04-28T09:47:35.873Z,16.20
2018-04-28T09:50:04.263Z,16.10
2018-04-28T09:52:31.618Z,16.10
2018-04-28T09:54:58.970Z,16.40
2018-04-28T09:57:26.288Z,16.40
2018-04-28T09:59:53.065Z,16.30
2018-04-28T10:02:19.812Z,16.50
2018-04-28T10:04:47.263Z,16.40
2018-04-28T10:07:14.615Z,16.40
2018-04-28T10:09:41.969Z,16.50
2018-04-28T10:12:08.605Z,16.40
2018-04-28T10:14:35.244Z,16.50
2018-04-28T10:17:02.598Z,16.60
2018-04-28T10:19:29.235Z,16.60
2018-04-28T10:21:56.590Z,16.70
2018-04-28T10:24:24.046Z,16.80
2018-04-28T10:26:50.682Z,16.80
2018-04-28T10:29:17.320Z,16.90
2018-04-28T10:31:44.674Z,17.10
2018-04-28T10:34:12.131Z,17.10
2018-04-28T10:36:39.485Z,17.30
2018-04-28T10:39:06.795Z,17.20
2018-04-28T10:41:33.374Z,17.20
2018-04-28T10:43:59.996Z,17.20
2018-04-28T10:46:27.366Z,17.20
2018-04-28T10:48:54.720Z,17.10
2018-04-28T10:51:22.074Z,17.30
2018-04-28T10:53:49.474Z,17.40
2018-04-28T10:56:16.271Z,17.30
2018-04-28T10:58:43.711Z,17.50
2018-04-28T11:01:11.081Z,17.60
2018-04-28T11:03:38.435Z,17.70
2018-04-28T11:06:05.790Z,17.90
2018-04-28T11:08:32.529Z,17.80
2018-04-28T11:10:59.887Z,17.80
2018-04-28T11:13:26.622Z,17.80
2018-04-28T11:15:54.079Z,18.20
2018-04-28T11:18:21.416Z,18.30
2018-04-28T11:20:48.792Z,18.20
2018-04-28T11:23:16.141Z,18.30
2018-04-28T11:25:43.480Z,18.40
2018-04-28T11:28:10.114Z,18.40
2018-04-28T11:30:38.306Z,18.20
2018-04-28T11:33:05.596Z,18.30
2018-04-28T11:35:32.276Z,18.20
2018-04-28T11:37:58.833Z,18.40
2018-04-28T11:40:26.294Z,18.30
2018-04-28T11:42:53.594Z,18.40
2018-04-28T11:45:20.280Z,18.30
2018-04-28T11:47:47.022Z,18.40
2018-04-28T11:50:14.476Z,18.10
2018-04-28T11:52:41.113Z,18.10
2018-04-28T11:55:07.789Z,18.20
2018-04-28T11:57:34.388Z,18.00
2018-04-28T12:00:01.027Z,18.00
2018-04-28T12:02:28.377Z,18.60
2018-04-28T12:04:55.017Z,18.50
2018-04-28T12:07:21.759Z,18.60
2018-04-28T12:09:48.395Z,19.00
2018-04-28T12:12:15.134Z,19.10
2018-04-28T12:14:41.715Z,18.70
2018-04-28T12:17:08.306Z,18.60
2018-04-28T12:19:34.942Z,18.70
2018-04-28T12:22:02.296Z,18.60
2018-04-28T12:24:29.754Z,18.70
2018-04-28T12:26:56.391Z,18.60
2018-04-28T12:29:23.029Z,18.90
2018-04-28T12:31:49.666Z,18.70
2018-04-28T12:34:17.122Z,18.70
2018-04-28T12:36:43.865Z,18.60
2018-04-28T12:39:10.473Z,18.60
2018-04-28T12:41:37.127Z,18.60
2018-04-28T12:44:04.490Z,18.70
2018-04-28T12:46:31.844Z,18.80
2018-04-28T12:48:58.482Z,18.70
2018-04-28T12:51:25.939Z,18.90
2018-04-28T12:53:52.576Z,18.80
2018-04-28T12:56:19.316Z,18.80
2018-04-28T12:58:45.952Z,18.70
2018-04-28T13:01:13.408Z,19.00
2018-04-28T13:03:40.762Z,19.30
2018-04-28T13:06:07.616Z,19.20
2018-04-28T13:08:34.246Z,19.40
2018-04-28T13:11:01.596Z,19.20
2018-04-28T13:13:28.235Z,19.10
2018-04-28T13:15:54.849Z,19.10
2018-04-28T13:18:21.509Z,19.40
2018-04-28T13:20:48.130Z,19.50
2018-04-28T13:23:15.501Z,19.40
2018-04-28T13:25:42.343Z,19.30
2018-04-28T13:28:09.799Z,19.80
2018-04-28T13:30:37.156Z,20.40
2018-04-28T13:33:04.613Z,20.10
2018-04-28T13:35:31.556Z,20.00
2018-04-28T13:37:59.012Z,19.70
2018-04-28T13:40:26.672Z,19.70
2018-04-28T13:42:54.128Z,20.30
2018-04-28T13:45:21.481Z,20.20
2018-04-28T13:47:49.470Z,20.20
2018-04-28T13:50:16.073Z,20.20
2018-04-28T13:52:43.442Z,19.80
2018-04-28T13:55:10.799Z,19.90
2018-04-28T13:57:37.536Z,19.90
2018-04-28T14:00:04.992Z,19.30
2018-04-28T14:02:32.449Z,19.10
2018-04-28T14:04:59.804Z,19.40
2018-04-28T14:07:26.440Z,19.40
2018-04-28T14:09:53.772Z,20.60
2018-04-28T14:12:20.433Z,20.50
2018-04-28T14:14:47.764Z,19.90
2018-04-28T14:17:14.423Z,19.80
2018-04-28T14:19:41.778Z,20.40
2018-04-28T14:22:08.393Z,20.30
2018-04-28T14:24:35.054Z,20.50
2018-04-28T14:27:01.947Z,20.10
2018-04-28T14:29:28.495Z,19.70
2018-04-28T14:31:55.169Z,19.50
2018-04-28T14:34:22.522Z,19.50
2018-04-28T14:36:49.367Z,19.50
2018-04-28T14:39:16.207Z,20.40
2018-04-28T14:41:42.946Z,21.20
2018-04-28T14:44:14.504Z,22.40
2018-04-28T14:46:41.677Z,22.30
2018-04-28T14:49:08.285Z,22.40
2018-04-28T14:51:34.923Z,22.40
2018-04-28T14:54:02.461Z,21.90
2018-04-28T14:56:29.835Z,22.10
2018-04-28T14:58:57.061Z,22.00
2018-04-28T15:01:23.827Z,22.40
2018-04-28T15:03:51.591Z,23.00
2018-04-28T15:06:19.968Z,22.50
2018-04-28T15:08:47.325Z,24.10
2018-04-28T15:11:15.089Z,24.10
2018-04-28T15:13:42.032Z,24.00
2018-04-28T15:16:08.771Z,24.50
2018-04-28T15:18:35.616Z,23.70
2018-04-28T15:21:02.253Z,24.50
2018-04-28T15:23:29.730Z,23.50
2018-04-28T15:25:57.266Z,23.40
2018-04-28T15:28:24.025Z,23.20
2018-04-28T15:30:50.792Z,23.20
2018-04-28T15:33:17.484Z,23.40
2018-04-28T15:35:45.042Z,25.90
2018-04-28T15:38:12.502Z,26.60
2018-04-28T15:40:39.854Z,26.70
2018-04-28T15:43:06.490Z,26.60
2018-04-28T15:45:33.813Z,23.70
2018-04-28T15:48:00.790Z,23.60
2018-04-28T15:50:27.720Z,23.50
2018-04-28T15:52:55.191Z,22.30
2018-04-28T15:55:22.055Z,22.20
2018-04-28T15:57:49.372Z,21.00
2018-04-28T16:00:16.027Z,20.90
2018-04-28T16:02:42.705Z,20.80
2018-04-28T16:05:09.299Z,20.70
2018-04-28T16:07:38.187Z,20.00
2018-04-28T16:10:05.031Z,19.90
2018-04-28T16:12:32.384Z,19.70
2018-04-28T16:14:59.910Z,19.50
2018-04-28T16:17:26.477Z,19.50
2018-04-28T16:19:54.241Z,19.80
2018-04-28T16:22:21.597Z,19.70
2018-04-28T16:24:48.937Z,19.60
2018-04-28T16:27:16.420Z,19.70
2018-04-28T16:29:43.044Z,19.60
2018-04-28T16:32:11.397Z,19.80
2018-04-28T16:34:38.264Z,19.80
2018-04-28T16:37:05.619Z,21.80
2018-04-28T16:39:32.958Z,23.20
2018-04-28T16:42:00.325Z,23.00
2018-04-28T16:44:27.681Z,22.70
2018-04-28T16:46:55.036Z,22.10
2018-04-28T16:49:22.388Z,21.40
2018-04-28T16:51:49.008Z,21.30
2018-04-28T16:54:15.665Z,20.80
2018-04-28T16:56:42.303Z,20.80
2018-04-28T16:59:10.459Z,20.70
2018-04-28T17:01:37.214Z,20.70
2018-04-28T17:04:03.854Z,20.60
2018-04-28T17:06:30.582Z,20.30
2018-04-28T17:08:57.927Z,19.50
2018-04-28T17:11:25.300Z,19.30
2018-04-28T17:13:51.896Z,19.20
2018-04-28T17:16:18.675Z,19.30
2018-04-28T17:18:47.053Z,19.30
2018-04-28T17:21:13.796Z,19.30
2018-04-28T17:23:40.432Z,19.10
2018-04-28T17:26:07.993Z,19.10
2018-04-28T17:28:35.330Z,18.90
2018-04-28T17:31:02.802Z,18.80
2018-04-28T17:33:29.440Z,18.70
2018-04-28T17:35:56.180Z,18.80
2018-04-28T17:38:22.815Z,18.90
2018-04-28T17:40:50.276Z,18.80
2018-04-28T17:43:17.630Z,18.70
2018-04-28T17:45:45.090Z,18.60
2018-04-28T17:48:11.724Z,18.50
2018-04-28T17:50:39.487Z,18.50
2018-04-28T17:53:06.313Z,18.40
2018-04-28T17:55:33.685Z,18.70
2018-04-28T17:58:00.325Z,18.60
2018-04-28T18:00:27.675Z,19.30
2018-04-28T18:02:55.096Z,19.20
2018-04-28T18:05:21.772Z,19.10
2018-04-28T18:07:48.410Z,18.90
2018-04-28T18:10:15.971Z,18.80
2018-04-28T18:12:42.709Z,18.80
2018-04-28T18:15:10.930Z,18.30
2018-04-28T18:17:37.725Z,18.20
2018-04-28T18:20:05.283Z,17.90
2018-04-28T18:22:32.123Z,17.90
2018-04-28T18:24:59.583Z,17.80
2018-04-28T18:27:26.427Z,17.80
2018-04-28T18:29:53.058Z,17.80
2018-04-28T18:32:20.504Z,17.80
2018-04-28T18:34:47.973Z,17.80
2018-04-28T18:37:15.437Z,17.70
2018-04-28T18:39:42.172Z,17.70
2018-04-28T18:42:09.735Z,17.10
2018-04-28T18:44:36.575Z,17.10
2018-04-28T18:47:03.616Z,17.20
2018-04-28T18:49:30.479Z,17.20
2018-04-28T18:51:57.207Z,17.20
2018-04-28T18:54:24.047Z,16.60
2018-04-28T18:56:51.089Z,16.70
2018-04-28T18:59:18.438Z,16.70
2018-04-28T19:01:45.081Z,16.60
2018-04-28T19:04:11.716Z,16.40
2018-04-28T19:06:39.686Z,16.40
2018-04-28T19:09:06.430Z,16.40
2018-04-28T19:11:33.055Z,16.30
2018-04-28T19:14:00.423Z,16.20
2018-04-28T19:16:27.865Z,16.20
2018-04-28T19:18:54.487Z,16.10
2018-04-28T19:21:21.961Z,16.20
2018-04-28T19:23:48.596Z,16.20
2018-04-28T19:26:16.258Z,16.10
2018-04-28T19:28:42.896Z,15.90
2018-04-28T19:31:09.473Z,16.60
2018-04-28T19:33:36.169Z,16.30
2018-04-28T19:36:02.811Z,16.20
2018-04-28T19:38:29.444Z,16.00
2018-04-28T19:40:59.051Z,16.10
2018-04-28T19:43:27.245Z,16.10
2018-04-28T19:45:54.681Z,16.20
2018-04-28T19:48:21.320Z,16.20
2018-04-28T19:50:48.169Z,16.10
2018-04-28T19:53:14.899Z,16.10
2018-04-28T19:55:41.538Z,16.00
2018-04-28T19:58:08.175Z,16.00
2018-04-28T20:00:35.367Z,15.90
2018-04-28T20:03:02.474Z,15.70
2018-04-28T20:05:29.842Z,15.40
2018-04-28T20:07:56.567Z,15.30
2018-04-28T20:10:33.956Z,15.40
2018-04-28T20:13:01.311Z,15.50
2018-04-28T20:15:28.871Z,15.40
2018-04-28T20:17:55.490Z,15.40
2018-04-28T20:20:22.042Z,15.40
2018-04-28T20:23:01.066Z,15.20
2018-04-28T20:25:27.812Z,15.30
2018-04-28T20:27:54.737Z,15.30
2018-04-28T20:30:22.930Z,15.40
2018-04-28T20:32:49.565Z,15.30
2018-04-28T20:35:16.717Z,15.40
2018-04-28T20:37:43.868Z,15.30
2018-04-28T20:40:10.587Z,15.40
2018-04-28T20:42:38.572Z,15.50
2018-04-28T20:45:05.502Z,15.40
2018-04-28T20:47:32.851Z,15.40
2018-04-28T20:49:59.509Z,15.40
2018-04-28T20:52:33.924Z,15.50
2018-04-28T20:55:01.800Z,15.30
2018-04-28T20:57:28.432Z,15.20
2018-04-28T20:59:55.095Z,15.30
2018-04-28T21:02:21.705Z,15.40
2018-04-28T21:04:48.220Z,15.40
2018-04-28T21:07:14.877Z,15.10
2018-04-28T21:09:42.351Z,15.10
2018-04-28T21:12:09.163Z,15.10
2018-04-28T21:14:35.812Z,15.30
2018-04-28T21:17:02.451Z,15.10
2018-04-28T21:19:29.908Z,15.20
2018-04-28T21:21:57.363Z,15.10
2018-04-28T21:24:24.718Z,15.20
2018-04-28T21:26:54.119Z,15.00
2018-04-28T21:29:20.757Z,15.00
2018-04-28T21:31:48.093Z,15.20
2018-04-28T21:34:15.271Z,15.10
2018-04-28T21:36:43.090Z,15.20
2018-04-28T21:39:09.764Z,15.30
2018-04-28T21:41:37.117Z,15.20
2018-04-28T21:44:04.676Z,15.30
2018-04-28T21:46:32.257Z,15.30
2018-04-28T21:48:58.872Z,15.30
2018-04-28T21:51:26.228Z,14.90
2018-04-28T21:53:53.993Z,14.80
2018-04-28T21:56:20.629Z,14.70
2018-04-28T21:58:48.393Z,14.90
2018-04-28T22:01:15.683Z,14.90
2018-04-28T22:03:42.280Z,15.00
2018-04-28T22:06:09.639Z,14.90
2018-04-28T22:08:36.271Z,14.90
2018-04-28T22:11:03.625Z,15.10
2018-04-28T22:13:30.467Z,15.10
2018-04-28T22:15:57.823Z,15.00
2018-04-28T22:18:25.176Z,15.00
2018-04-28T22:20:51.793Z,15.00
2018-04-28T22:23:18.428Z,14.60
2018-04-28T22:25:44.988Z,14.40
2018-04-28T22:28:13.140Z,14.90
2018-04-28T22:30:40.615Z,14.90
2018-04-28T22:33:07.978Z,15.10
2018-04-28T22:35:34.607Z,15.00
2018-04-28T22:38:01.963Z,14.50
2018-04-28T22:40:29.315Z,14.30
2018-04-28T22:42:56.669Z,14.60
2018-04-28T22:45:24.001Z,14.80
2018-04-28T22:47:50.664Z,14.70
2018-04-28T22:50:17.994Z,14.10
2018-04-28T22:52:45.370Z,14.40
2018-04-28T22:55:12.702Z,14.30
2018-04-28T22:57:40.079Z,14.60
2018-04-28T23:00:08.356Z,14.50
2018-04-28T23:02:34.991Z,14.40
2018-04-28T23:05:02.326Z,14.40
2018-04-28T23:07:28.877Z,14.30
2018-04-28T23:09:55.516Z,14.60
2018-04-28T23:12:22.132Z,14.60
2018-04-28T23:14:50.305Z,14.50
2018-04-28T23:17:16.948Z,14.50
2018-04-28T23:19:43.612Z,14.50
2018-04-28T23:22:10.240Z,14.50
2018-04-28T23:24:36.876Z,14.70
2018-04-28T23:27:04.231Z,14.50
2018-04-28T23:29:31.789Z,14.60
2018-04-28T23:31:59.144Z,14.40
2018-04-28T23:34:26.601Z,14.40
2018-04-28T23:36:53.943Z,14.20
2018-04-28T23:39:21.310Z,14.20
2018-04-28T23:41:48.969Z,14.10
2018-04-28T23:44:16.312Z,14.10
2018-04-28T23:46:43.679Z,14.30
2018-04-28T23:49:11.033Z,13.90
2018-04-28T23:51:37.670Z,13.90
2018-04-28T23:54:05.024Z,13.90
2018-04-28T23:56:32.377Z,14.20
2018-04-28T23:58:59.835Z,14.10
